Time;durP1;ratioP1;P1;durP2;ratioP2;P2;SDS_P1;SDS_P2;PMS_P1;PMS_P2;Temp;Humidity;BMP_temperature;BMP_pressure;BME280_temperature;BME280_humidity;BME280_pressure;Samples;Min_cycle;Max_cycle;Signal;HPM_P1;HPM_P2
2021/06/18 00:01:22;;;;;;;3.10;2.73;;;;;;;14.46;79.83;96098.86;1840289;78;21054;-62
2021/06/18 00:03:50;;;;;;;3.47;3.17;;;;;;;14.46;79.69;96096.20;1840802;78;20987;-63
2021/06/18 00:06:17;;;;;;;3.13;2.60;;;;;;;14.48;79.59;96097.91;1840350;78;21110;-62
2021/06/18 00:08:44;;;;;;;3.70;2.30;;;;;;;14.53;79.38;96091.63;1840662;78;21445;-62
2021/06/18 00:11:11;;;;;;;4.90;2.90;;;;;;;14.52;79.59;96092.55;1840639;78;21007;-62
2021/06/18 00:13:37;;;;;;;3.10;2.73;;;;;;;14.46;80.30;96090.90;1840597;78;20996;-62
2021/06/18 00:16:04;;;;;;;4.85;2.42;;;;;;;14.47;80.08;96090.00;1840408;78;21484;-62
2021/06/18 00:18:31;;;;;;;4.13;3.20;;;;;;;14.52;80.09;96084.13;1840771;78;21027;-67
2021/06/18 00:20:58;;;;;;;3.67;2.60;;;;;;;14.59;79.74;96079.53;1840681;78;21071;-62
2021/06/18 00:23:24;;;;;;;2.80;2.60;;;;;;;14.61;79.83;96078.58;1840834;78;20979;-62
2021/06/18 00:25:51;;;;;;;3.37;2.70;;;;;;;14.66;79.58;96067.37;1840721;78;20995;-62
2021/06/18 00:28:17;;;;;;;3.33;2.58;;;;;;;14.78;79.35;96066.18;1840509;78;20996;-62
2021/06/18 00:30:44;;;;;;;5.10;3.70;;;;;;;14.88;79.44;96070.32;1836640;78;20972;-62
2021/06/18 00:33:11;;;;;;;14.33;4.53;;;;;;;14.93;79.06;96060.44;1835180;78;21468;-62
2021/06/18 00:35:37;;;;;;;7.15;4.92;;;;;;;15.01;78.64;96063.34;1745698;82;21021;-62
2021/06/18 00:38:04;;;;;;;10.00;5.20;;;;;;;15.03;78.31;96062.84;1767837;81;21033;-62
2021/06/18 00:40:31;;;;;;;8.93;5.10;;;;;;;15.07;78.16;96060.06;1767974;81;21552;-62
2021/06/18 00:42:58;;;;;;;7.17;3.98;;;;;;;15.09;78.07;96067.53;1768083;81;21037;-62
2021/06/18 00:45:24;;;;;;;4.17;2.77;;;;;;;15.13;78.05;96060.33;1767599;81;21524;-62
2021/06/18 00:48:01;;;;;;;6.07;3.93;;;;;;;15.14;78.31;96062.95;1768004;81;21002;-62
2021/06/18 00:50:29;;;;;;;6.37;3.77;;;;;;;15.20;78.26;96062.36;1767807;81;21070;-62
2021/06/18 00:52:56;;;;;;;3.08;2.77;;;;;;;15.16;78.66;96060.23;1767897;81;21002;-62
2021/06/18 00:55:22;;;;;;;4.97;2.87;;;;;;;15.10;79.08;96051.13;1767865;81;21090;-62
2021/06/18 00:57:51;;;;;;;10.65;4.62;;;;;;;15.01;79.51;96058.89;1767878;81;21049;-62
2021/06/18 01:00:20;;;;;;;11.30;5.00;;;;;;;14.97;79.67;96056.35;1795653;80;21005;-62
2021/06/18 01:02:47;;;;;;;9.37;5.77;;;;;;;14.92;79.95;96052.06;1795717;80;21451;-62
2021/06/18 01:05:16;;;;;;;9.15;5.50;;;;;;;14.96;79.94;96058.15;1795808;80;20958;-62
2021/06/18 01:07:48;;;;;;;8.43;4.22;;;;;;;14.89;79.90;96048.17;1795968;80;21415;-62
2021/06/18 01:10:41;;;;;;;4.03;3.00;;;;;;;14.87;80.06;96051.32;1795490;80;21014;-65
2021/06/18 01:13:33;;;;;;;5.35;3.30;;;;;;;14.89;80.29;96045.52;1795803;80;21056;-62
2021/06/18 01:16:16;;;;;;;3.60;2.72;;;;;;;14.92;80.23;96032.59;1796029;80;21025;-62
2021/06/18 01:18:52;;;;;;;;;;;;;;;14.88;80.91;96025.62;1798549;80;20954;-62
2021/06/18 01:21:30;;;;;;;6.67;4.60;;;;;;;14.87;81.17;96031.40;1794981;80;20116;-62
2021/06/18 01:24:05;;;;;;;6.73;5.23;;;;;;;14.98;80.73;96031.08;1796276;80;21403;-62
2021/06/18 01:26:54;;;;;;;4.30;3.10;;;;;;;15.06;79.92;96026.41;1795431;80;21088;-62
2021/06/18 01:29:23;;;;;;;3.98;3.10;;;;;;;15.08;79.96;96021.92;1794043;80;21005;-62
2021/06/18 01:31:51;;;;;;;7.93;4.87;;;;;;;15.09;80.23;96022.36;1762188;80;21025;-62
2021/06/18 01:34:24;;;;;;;6.57;4.47;;;;;;;15.16;80.18;96021.69;1792676;80;21077;-62
2021/06/18 01:36:55;;;;;;;2.60;2.40;;;;;;;15.17;79.85;96020.80;1795957;80;21002;-62
2021/06/18 01:39:24;;;;;;;5.75;3.10;;;;;;;15.12;79.68;96020.92;1795693;80;21029;-62
2021/06/18 01:41:53;;;;;;;4.62;3.40;;;;;;;15.05;80.28;96006.08;1795863;80;21001;-62
2021/06/18 01:44:21;;;;;;;9.88;5.47;;;;;;;14.99;80.70;96012.88;1795771;80;21069;-62
2021/06/18 01:46:50;;;;;;;8.65;5.30;;;;;;;14.99;80.73;96006.23;1795672;80;21048;-62
2021/06/18 01:49:19;;;;;;;9.13;5.00;;;;;;;15.00;80.63;96004.47;1795403;80;21526;-62
2021/06/18 01:51:49;;;;;;;6.07;4.40;;;;;;;14.99;80.46;96002.72;1795929;80;20962;-62
2021/06/18 01:54:16;;;;;;;6.28;3.77;;;;;;;15.00;80.27;96005.34;1793252;80;21100;-62
2021/06/18 01:56:45;;;;;;;7.42;3.85;;;;;;;15.02;80.29;95994.21;1793017;80;21531;-62
2021/06/18 01:59:12;;;;;;;5.78;4.00;;;;;;;15.01;80.28;95996.44;1795874;80;21032;-62
2021/06/18 02:01:43;;;;;;;6.85;3.80;;;;;;;14.98;80.43;96003.64;1793254;80;21013;-62
2021/06/18 02:04:13;;;;;;;7.55;4.58;;;;;;;14.93;80.61;96006.43;1795441;80;20997;-62
2021/06/18 02:06:41;;;;;;;8.78;4.42;;;;;;;14.86;80.97;96007.52;1795395;80;21101;-62
2021/06/18 02:09:09;;;;;;;6.20;4.58;;;;;;;14.86;80.75;96012.36;1795919;80;21017;-62
2021/06/18 02:11:38;;;;;;;10.90;4.12;;;;;;;14.86;81.01;96013.70;1795541;80;21017;-62
2021/06/18 02:14:13;;;;;;;9.23;4.27;;;;;;;14.81;81.24;96005.45;1795808;80;20969;-62
2021/06/18 02:16:45;;;;;;;6.58;4.35;;;;;;;14.79;81.19;96012.59;1794836;80;21505;-62
2021/06/18 02:19:15;;;;;;;4.53;3.67;;;;;;;14.83;80.87;96014.25;1795975;80;21487;-62
2021/06/18 02:21:45;;;;;;;5.08;4.20;;;;;;;14.84;80.74;96016.88;1795477;80;20981;-62
2021/06/18 02:24:14;;;;;;;5.30;3.92;;;;;;;14.80;80.94;96028.49;1795784;80;20985;-62
2021/06/18 02:26:43;;;;;;;5.00;3.87;;;;;;;14.77;80.92;96027.27;1795942;80;21541;-62
2021/06/18 02:29:10;;;;;;;4.72;3.40;;;;;;;14.69;81.02;96027.91;1795767;80;20985;-62
2021/06/18 02:31:39;;;;;;;6.00;3.90;;;;;;;14.62;82.15;96028.55;1788970;80;21514;-62
2021/06/18 02:34:09;;;;;;;4.62;3.37;;;;;;;14.71;81.81;96031.40;1787697;80;21538;-62
2021/06/18 02:36:39;;;;;;;3.75;3.10;;;;;;;14.82;81.51;96024.02;1787365;80;21002;-62
2021/06/18 02:39:09;;;;;;;4.03;2.85;;;;;;;14.88;80.98;96022.96;1787782;80;20985;-62
2021/06/18 02:41:37;;;;;;;3.40;2.85;;;;;;;14.91;80.77;96023.73;1788199;80;21467;-62
2021/06/18 02:44:05;;;;;;;3.97;3.00;;;;;;;14.96;80.96;96020.95;1787661;80;21036;-62
2021/06/18 02:47:15;;;;;;;9.93;4.80;;;;;;;15.00;81.09;96031.05;1787858;80;21017;-62
2021/06/18 02:49:50;;;;;;;8.40;5.00;;;;;;;15.01;80.77;96029.66;1787557;80;21077;-62
2021/06/18 02:52:32;;;;;;;7.00;4.90;;;;;;;15.03;80.96;96026.50;1784543;80;21026;-62
2021/06/18 02:55:21;;;;;;;4.78;3.52;;;;;;;15.05;80.93;96019.83;1787785;80;21085;-62
2021/06/18 02:58:02;;;;;;;4.40;3.37;;;;;;;15.08;80.92;96024.58;1787797;80;20998;-62
2021/06/18 03:00:29;;;;;;;5.12;3.27;;;;;;;15.17;80.95;96020.80;1787319;80;21033;-62
2021/06/18 03:02:59;;;;;;;3.63;3.10;;;;;;;15.30;80.42;96022.16;1787674;80;21021;-62
2021/06/18 03:05:28;;;;;;;4.58;3.12;;;;;;;15.27;80.15;96016.05;1787462;80;20982;-62
2021/06/18 03:08:03;;;;;;;4.70;2.83;;;;;;;15.19;79.97;96018.94;1787753;80;21002;-62
2021/06/18 03:10:39;;;;;;;3.30;3.00;;;;;;;15.19;80.42;96017.61;1785666;80;21021;-62
2021/06/18 03:13:23;;;;;;;8.78;5.08;;;;;;;15.18;80.77;96009.23;1787755;80;21033;-62
2021/06/18 03:15:50;;;;;;;;;;;;;;;15.28;80.36;96016.48;1789316;80;21602;-63
2021/06/18 03:18:21;;;;;;;8.78;6.25;;;;;;;15.31;80.02;96019.90;1787701;80;20101;-62
2021/06/18 03:20:51;;;;;;;8.20;6.12;;;;;;;15.31;80.02;96014.58;1787573;80;21010;-62
2021/06/18 03:23:19;;;;;;;9.80;5.55;;;;;;;15.29;80.00;96012.42;1787384;80;21332;-62
2021/06/18 03:25:48;;;;;;;7.12;4.72;;;;;;;15.20;79.95;96020.70;1787278;80;20990;-62
2021/06/18 03:28:16;;;;;;;5.00;4.50;;;;;;;15.13;80.17;96016.48;1787708;80;21485;-62
2021/06/18 03:30:47;;;;;;;4.92;3.17;;;;;;;15.17;81.19;96012.83;1787441;80;21060;-62
2021/06/18 03:33:14;;;;;;;5.85;3.22;;;;;;;15.25;80.60;96013.92;1787681;80;21002;-62
2021/06/18 03:35:42;;;;;;;7.37;4.70;;;;;;;15.32;80.93;96012.36;1782228;80;21064;-62
2021/06/18 03:38:10;;;;;;;7.15;5.37;;;;;;;15.36;81.20;96019.77;1787485;80;21056;-62
2021/06/18 03:40:38;;;;;;;7.67;5.33;;;;;;;15.30;81.14;96022.16;1787857;80;21005;-62
2021/06/18 03:43:06;;;;;;;13.10;6.58;;;;;;;15.30;81.42;96023.49;1787658;80;21005;-62
2021/06/18 03:45:36;;;;;;;6.15;5.47;;;;;;;15.36;81.16;96024.63;1787542;80;20986;-63
2021/06/18 03:48:04;;;;;;;9.28;4.75;;;;;;;15.44;81.04;96026.17;1782731;80;21061;-63
2021/06/18 03:50:34;;;;;;;7.80;5.10;;;;;;;15.49;81.00;96022.45;1787486;80;21049;-63
2021/06/18 03:53:01;;;;;;;6.30;4.95;;;;;;;15.52;81.19;96030.36;1787620;80;20978;-63
2021/06/18 03:55:29;;;;;;;11.33;5.70;;;;;;;15.62;80.78;96028.25;1752001;80;21124;-63
2021/06/18 03:57:57;;;;;;;6.80;5.30;;;;;;;15.71;80.49;96029.34;1787316;80;20978;-64
2021/06/18 04:00:25;;;;;;;7.40;5.87;;;;;;;15.76;80.77;96026.53;1787803;80;21006;-63
2021/06/18 04:02:53;;;;;;;9.38;6.55;;;;;;;15.78;80.97;96026.03;1787710;80;21463;-62
2021/06/18 04:05:23;;;;;;;8.95;6.55;;;;;;;15.83;80.60;96027.22;1787460;80;21019;-63
2021/06/18 04:07:52;;;;;;;7.72;6.30;;;;;;;15.89;80.24;96027.88;1787554;80;21482;-63
2021/06/18 04:10:20;;;;;;;9.83;6.30;;;;;;;15.95;80.11;96029.02;1787630;80;21044;-62
2021/06/18 04:12:50;;;;;;;8.75;6.10;;;;;;;16.03;79.80;96031.86;1787352;80;21471;-61
2021/06/18 04:15:18;;;;;;;8.58;5.92;;;;;;;16.06;79.55;96034.45;1787739;80;20997;-59
2021/06/18 04:17:45;;;;;;;9.43;5.83;;;;;;;16.08;79.24;96037.94;1787591;80;21040;-61
2021/06/18 04:20:13;;;;;;;8.38;5.75;;;;;;;16.04;79.33;96036.29;1787423;80;21467;-61
2021/06/18 04:22:40;;;;;;;7.15;5.35;;;;;;;16.01;79.62;96031.47;1787681;80;20997;-62
2021/06/18 04:25:10;;;;;;;7.35;5.70;;;;;;;16.08;79.62;96033.95;1782496;80;20997;-62
2021/06/18 04:27:36;;;;;;;7.45;6.15;;;;;;;16.25;79.64;96033.36;1787748;80;20966;-62
2021/06/18 04:30:07;;;;;;;7.00;5.58;;;;;;;16.37;79.13;96032.47;1787375;80;21036;-62
2021/06/18 04:32:34;;;;;;;8.98;5.50;;;;;;;16.48;79.03;96018.81;1787569;80;21486;-62
2021/06/18 04:35:02;;;;;;;8.95;5.83;;;;;;;16.62;78.65;96023.17;1787233;80;21009;-62
2021/06/18 04:37:28;;;;;;;9.38;6.12;;;;;;;16.71;78.18;96019.32;1787375;80;21525;-62
2021/06/18 04:39:56;;;;;;;10.38;7.12;;;;;;;16.69;77.59;96020.30;1787299;80;21041;-62
2021/06/18 04:42:22;;;;;;;8.83;6.50;;;;;;;16.64;77.99;96021.80;1787735;80;21004;-62
2021/06/18 04:44:49;;;;;;;11.22;6.87;;;;;;;16.63;78.47;96023.59;1787473;80;21044;-61
2021/06/18 04:47:16;;;;;;;11.35;6.80;;;;;;;16.75;78.53;96018.27;1787880;80;21050;-62
2021/06/18 04:49:42;;;;;;;8.53;6.28;;;;;;;16.81;78.36;96008.77;1787989;80;20966;-62
2021/06/18 04:52:09;;;;;;;13.20;6.85;;;;;;;16.89;78.72;96012.95;1752190;80;21013;-61
2021/06/18 04:54:35;;;;;;;7.80;5.87;;;;;;;17.04;79.08;96010.58;1787728;80;20994;-61
2021/06/18 04:57:03;;;;;;;7.62;5.72;;;;;;;17.07;78.49;96018.92;1787645;80;20958;-61
2021/06/18 04:59:30;;;;;;;9.53;8.50;;;;;;;17.18;78.56;96017.18;1787692;80;21049;-63
2021/06/18 05:01:56;;;;;;;5.33;4.83;;;;;;;17.26;76.28;96013.31;1787594;80;21535;-62
2021/06/18 05:04:23;;;;;;;5.28;4.40;;;;;;;17.47;75.29;96016.08;1787387;80;21025;-61
2021/06/18 05:06:50;;;;;;;4.58;3.85;;;;;;;17.59;73.92;96020.05;1787708;80;20962;-62
2021/06/18 05:09:16;;;;;;;9.50;4.22;;;;;;;17.69;74.90;96018.78;1787595;80;21463;-61
2021/06/18 05:11:43;;;;;;;4.87;4.17;;;;;;;17.86;75.55;96021.64;1787433;80;21080;-62
2021/06/18 05:14:09;;;;;;;4.87;4.37;;;;;;;18.05;74.47;96023.11;1787544;80;21018;-62
2021/06/18 05:16:38;;;;;;;5.15;4.45;;;;;;;18.22;74.08;96025.09;1787641;80;20997;-64
2021/06/18 05:19:06;;;;;;;5.17;4.22;;;;;;;18.38;74.25;96015.95;1787778;80;21033;-61
2021/06/18 05:21:34;;;;;;;6.28;4.00;;;;;;;18.51;73.22;96012.29;1787612;80;20962;-62
2021/06/18 05:24:01;;;;;;;4.83;4.03;;;;;;;18.64;73.69;96016.63;1787332;80;21029;-66
2021/06/18 05:26:33;;;;;;;6.72;3.92;;;;;;;18.77;73.29;96013.41;1777317;80;20989;-60
2021/06/18 05:29:00;;;;;;;5.33;4.22;;;;;;;18.92;72.77;96014.50;1746842;82;21462;-62
2021/06/18 05:31:28;;;;;;;7.37;4.10;;;;;;;19.03;72.17;96018.05;1775765;80;21027;-63
2021/06/18 05:33:54;;;;;;;6.17;3.87;;;;;;;19.18;72.07;96018.69;1775832;80;20991;-61
2021/06/18 05:36:21;;;;;;;3.75;3.30;;;;;;;19.35;72.32;96016.58;1741444;82;21516;-61
2021/06/18 05:38:47;;;;;;;4.20;3.70;;;;;;;19.43;70.55;96014.88;1758041;81;20995;-60
2021/06/18 05:41:14;;;;;;;5.03;3.55;;;;;;;19.62;70.93;96020.22;1743250;82;21515;-60
2021/06/18 05:43:40;;;;;;;4.33;3.50;;;;;;;19.82;70.56;96012.61;1757181;81;20978;-61
2021/06/18 05:46:07;;;;;;;4.67;3.40;;;;;;;20.00;70.89;96013.03;1753679;81;20982;-62
2021/06/18 05:48:33;;;;;;;5.08;3.45;;;;;;;20.39;69.52;96001.77;1760177;81;20966;-61
2021/06/18 05:51:00;;;;;;;5.28;3.10;;;;;;;20.61;66.91;96014.95;1724550;83;21566;-61
2021/06/18 05:53:27;;;;;;;7.15;3.98;;;;;;;20.61;66.91;96014.95;1746162;82;21032;-60
2021/06/18 05:55:53;;;;;;;5.37;3.70;;;;;;;20.72;66.74;96012.59;1727524;82;21176;-61
2021/06/18 05:58:20;;;;;;;5.47;3.87;;;;;;;20.87;66.43;96010.94;1758332;81;20927;-63
2021/06/18 06:00:46;;;;;;;6.87;3.47;;;;;;;21.02;66.80;96010.12;1752441;80;20988;-62
2021/06/18 06:03:13;;;;;;;4.12;3.72;;;;;;;21.21;66.54;96015.34;1741483;81;21003;-62
2021/06/18 06:05:40;;;;;;;8.15;4.00;;;;;;;21.36;65.16;96015.85;1780668;80;21017;-61
2021/06/18 06:08:12;;;;;;;8.30;3.75;;;;;;;21.47;65.85;96015.33;1771807;81;21400;-64
2021/06/18 06:10:38;;;;;;;7.58;4.03;;;;;;;21.65;65.13;96014.77;1771218;81;21789;-63
2021/06/18 06:13:06;;;;;;;13.30;4.08;;;;;;;21.77;65.02;96007.83;1751892;80;20995;-65
2021/06/18 06:15:33;;;;;;;15.10;4.58;;;;;;;21.89;64.00;96005.80;1765564;80;20964;-64
2021/06/18 06:18:01;;;;;;;9.25;4.62;;;;;;;22.03;63.02;96004.54;1786161;79;21493;-64
2021/06/18 06:20:27;;;;;;;15.88;4.17;;;;;;;22.11;62.46;96008.13;1776854;80;21007;-64
2021/06/18 06:22:54;;;;;;;11.18;4.42;;;;;;;22.28;61.68;96000.47;1724782;82;21059;-64
2021/06/18 06:25:21;;;;;;;6.12;3.62;;;;;;;22.40;61.92;95997.52;1759444;81;20999;-64
2021/06/18 06:27:47;;;;;;;5.95;3.75;;;;;;;22.54;61.68;95994.89;1756100;82;20994;-63
2021/06/18 06:30:15;;;;;;;4.80;3.77;;;;;;;22.65;60.45;95996.92;1754407;82;21070;-65
2021/06/18 06:32:42;;;;;;;7.95;4.08;;;;;;;22.78;61.11;95995.70;1750961;81;21547;-66
2021/06/18 06:35:10;;;;;;;7.20;4.15;;;;;;;22.89;60.69;95995.94;1762422;81;21090;-62
2021/06/18 06:37:36;;;;;;;7.78;4.17;;;;;;;22.97;61.17;96000.84;1732993;82;21417;-64
2021/06/18 06:40:06;;;;;;;5.97;4.30;;;;;;;22.97;60.34;96003.08;1762603;81;21029;-67
2021/06/18 06:42:32;;;;;;;9.30;4.92;;;;;;;22.91;59.39;96003.44;1733000;83;21007;-64
2021/06/18 06:44:58;;;;;;;10.15;4.62;;;;;;;22.94;60.67;96003.24;1762858;81;21034;-63
2021/06/18 06:47:25;;;;;;;5.15;3.77;;;;;;;23.15;60.38;96001.56;1733110;83;21030;-63
2021/06/18 06:49:51;;;;;;;5.33;4.00;;;;;;;23.31;61.40;95991.10;1762899;81;21014;-64
2021/06/18 06:52:19;;;;;;;7.78;4.30;;;;;;;23.49;58.41;95994.94;1732371;83;21512;-65
2021/06/18 06:54:46;;;;;;;5.60;3.98;;;;;;;23.59;58.06;95992.53;1762733;81;21497;-64
2021/06/18 06:57:15;;;;;;;6.22;4.03;;;;;;;23.71;57.84;95993.06;1732852;83;21066;-66
2021/06/18 06:59:41;;;;;;;11.12;4.33;;;;;;;23.78;56.35;95996.27;1762653;81;21062;-68
2021/06/18 07:02:08;;;;;;;4.87;3.70;;;;;;;23.81;55.58;95994.72;1732503;83;20987;-66
2021/06/18 07:04:35;;;;;;;6.75;3.87;;;;;;;23.93;56.69;96000.66;1762806;81;21026;-64
2021/06/18 07:07:01;;;;;;;4.83;4.22;;;;;;;24.17;57.65;96000.41;1732795;83;21463;-64
2021/06/18 07:09:28;;;;;;;8.58;4.28;;;;;;;24.33;55.45;95989.45;1730999;83;21509;-63
2021/06/18 07:11:54;;;;;;;5.45;4.10;;;;;;;24.35;53.44;95988.88;1762737;81;21030;-64
2021/06/18 07:14:21;;;;;;;5.67;3.75;;;;;;;24.40;55.06;95979.99;1732725;83;20983;-65
2021/06/18 07:16:48;;;;;;;6.78;4.00;;;;;;;24.47;55.20;95980.48;1762563;81;21066;-64
2021/06/18 07:19:14;;;;;;;4.62;3.87;;;;;;;24.52;54.42;95980.14;1732922;83;21054;-64
2021/06/18 07:21:40;;;;;;;5.53;3.70;;;;;;;24.58;54.57;95973.86;1761858;81;21738;-64
2021/06/18 07:24:07;;;;;;;3.98;3.60;;;;;;;24.67;54.69;95976.44;1732603;83;21504;-64
2021/06/18 07:26:34;;;;;;;5.33;4.10;;;;;;;24.75;54.34;95972.72;1731069;83;20995;-64
2021/06/18 07:29:00;;;;;;;5.12;3.52;;;;;;;24.84;54.64;95980.64;1762880;81;21007;-64
2021/06/18 07:31:27;;;;;;;4.80;3.80;;;;;;;24.88;52.74;95978.62;1733001;82;21416;-64
2021/06/18 07:33:53;;;;;;;6.60;3.58;;;;;;;24.93;52.28;95985.91;1762263;81;21070;-64
2021/06/18 07:36:20;;;;;;;4.87;4.05;;;;;;;24.99;53.35;95981.42;1756032;82;21042;-64
2021/06/18 07:38:48;;;;;;;5.10;3.72;;;;;;;25.10;54.16;95986.06;1777950;81;21095;-64
2021/06/18 07:41:16;;;;;;;5.80;3.98;;;;;;;25.13;54.68;95988.08;1756246;82;21018;-64
2021/06/18 07:43:42;;;;;;;6.80;3.65;;;;;;;25.16;53.99;95989.23;1778215;81;21051;-64
2021/06/18 07:46:09;;;;;;;4.33;3.70;;;;;;;25.21;52.60;95983.52;1755796;82;21101;-64
2021/06/18 07:48:36;;;;;;;6.12;3.80;;;;;;;25.20;53.21;95984.47;1778392;81;21015;-64
2021/06/18 07:51:04;;;;;;;5.50;4.03;;;;;;;25.14;52.29;95985.74;1756048;82;21499;-64
2021/06/18 07:53:30;;;;;;;5.33;3.90;;;;;;;24.92;54.54;95982.35;1745687;81;21012;-64
2021/06/18 07:55:57;;;;;;;6.90;4.20;;;;;;;24.65;55.03;95992.34;1756147;82;21058;-64
2021/06/18 07:58:23;;;;;;;5.08;4.12;;;;;;;24.52;55.64;95991.83;1778265;81;20956;-64
2021/06/18 08:00:50;;;;;;;7.00;4.58;;;;;;;24.40;56.36;95988.58;1756141;82;21015;-64
2021/06/18 08:03:17;;;;;;;5.70;4.80;;;;;;;24.34;55.66;95994.36;1777969;81;21031;-64
2021/06/18 08:05:44;;;;;;;8.23;4.25;;;;;;;24.41;57.17;95991.64;1756215;82;21015;-64
2021/06/18 08:08:12;;;;;;;5.20;4.80;;;;;;;24.66;57.88;95986.83;1777859;81;21103;-64
2021/06/18 08:10:39;;;;;;;7.28;4.50;;;;;;;25.00;55.18;95980.47;1756018;82;21042;-64
2021/06/18 08:13:06;;;;;;;7.03;4.47;;;;;;;25.14;55.70;95988.94;1778248;81;21031;-64
2021/06/18 08:15:32;;;;;;;5.90;4.45;;;;;;;25.41;54.23;95987.02;1756060;82;21508;-64
2021/06/18 08:17:59;;;;;;;5.95;4.92;;;;;;;25.59;54.16;95976.72;1778117;81;21039;-64
2021/06/18 08:20:26;;;;;;;5.87;4.60;;;;;;;25.75;54.20;95972.41;1756248;82;21034;-64
2021/06/18 08:22:54;;;;;;;6.65;4.08;;;;;;;25.83;54.41;95977.25;1777829;81;20991;-64
2021/06/18 08:25:21;;;;;;;5.42;4.42;;;;;;;25.85;51.75;95972.14;1756004;81;20991;-64
2021/06/18 08:27:47;;;;;;;8.40;4.45;;;;;;;25.87;51.81;95976.09;1778244;81;20995;-64
2021/06/18 08:30:16;;;;;;;7.70;4.58;;;;;;;26.03;52.45;95971.76;1756058;82;21002;-63
2021/06/18 08:32:43;;;;;;;3.58;3.27;;;;;;;26.15;53.37;95962.73;1777794;81;21556;-63
2021/06/18 08:35:10;;;;;;;5.12;3.42;;;;;;;26.28;48.67;95962.67;1732690;81;21019;-63
2021/06/18 08:37:37;;;;;;;5.25;3.55;;;;;;;26.17;50.55;95968.90;1762279;81;21018;-65
2021/06/18 08:40:06;;;;;;;8.98;4.17;;;;;;;26.25;51.91;95967.83;1732765;82;21034;-64
2021/06/18 08:42:35;;;;;;;4.87;3.67;;;;;;;26.33;52.05;95966.78;1762825;81;21556;-62
2021/06/18 08:45:05;;;;;;;6.17;3.60;;;;;;;26.43;50.63;95957.95;1732792;83;21020;-63
2021/06/18 08:47:31;;;;;;;3.95;3.58;;;;;;;26.41;49.33;95961.25;1763607;81;21064;-61
2021/06/18 08:49:58;;;;;;;5.72;3.60;;;;;;;26.26;50.14;95960.11;1735578;83;21152;-61
2021/06/18 08:52:25;;;;;;;6.55;3.90;;;;;;;26.26;49.46;95953.84;1735757;83;21009;-62
2021/06/18 08:54:54;;;;;;;6.20;4.08;;;;;;;26.40;48.79;95960.89;1764430;81;21025;-61
2021/06/18 08:57:23;;;;;;;11.00;3.83;;;;;;;26.39;50.27;95953.27;1706979;83;21093;-60
2021/06/18 08:59:51;;;;;;;6.10;4.10;;;;;;;26.56;46.97;95954.73;1704411;84;21057;-60
2021/06/18 09:02:18;;;;;;;4.12;3.58;;;;;;;26.69;48.00;95954.66;1735485;83;21084;-61
2021/06/18 09:05:10;;;;;;;5.95;3.98;;;;;;;26.67;47.15;95945.28;1705140;84;21008;-60
2021/06/18 09:08:00;;;;;;;4.70;3.40;;;;;;;26.69;45.30;95953.30;1735825;83;21081;-60
2021/06/18 09:10:38;;;;;;;3.90;3.50;;;;;;;26.77;43.55;95956.27;1705224;84;21018;-59
2021/06/18 09:13:22;;;;;;;4.37;3.40;;;;;;;26.85;44.77;95950.25;1734883;82;21109;-62
2021/06/18 09:15:56;;;;;;;3.47;3.12;;;;;;;26.88;45.17;95946.80;1764087;81;21099;-62
2021/06/18 09:18:39;;;;;;;3.75;3.30;;;;;;;27.02;44.37;95943.03;1731915;81;21455;-59
2021/06/18 09:21:21;;;;;;;;;;;;;;;27.07;44.29;95948.09;1738657;83;20997;-60
2021/06/18 09:23:56;;;;;;;3.52;3.25;;;;;;;27.13;43.90;95947.59;1764459;81;20385;-60
2021/06/18 09:26:38;;;;;;;4.28;3.10;;;;;;;27.19;43.97;95941.25;1736110;83;20954;-60
2021/06/18 09:29:22;;;;;;;4.37;3.98;;;;;;;27.27;44.20;95935.22;1705288;84;20994;-60
2021/06/18 09:32:07;;;;;;;5.10;3.42;;;;;;;27.39;45.44;95933.34;1735536;83;21049;-60
2021/06/18 09:34:50;;;;;;;3.58;3.27;;;;;;;27.28;42.30;95936.92;1778243;80;21019;-60
2021/06/18 09:37:22;;;;;;;4.97;3.75;;;;;;;27.37;44.12;95934.84;1787782;80;21054;-59
2021/06/18 09:40:12;;;;;;;3.80;3.47;;;;;;;27.37;45.54;95937.55;1787893;80;21057;-60
2021/06/18 09:43:02;;;;;;;3.58;3.37;;;;;;;27.50;44.89;95932.50;1787674;80;21078;-60
2021/06/18 09:45:35;;;;;;;3.87;3.58;;;;;;;27.56;44.46;95931.50;1787710;80;20990;-60
2021/06/18 09:48:22;;;;;;;4.47;3.58;;;;;;;27.73;45.37;95931.98;1787859;80;20989;-60
2021/06/18 09:51:00;;;;;;;6.60;3.72;;;;;;;27.81;45.02;95937.17;1747715;81;20987;-60
2021/06/18 09:53:29;;;;;;;4.08;3.47;;;;;;;27.88;42.16;95930.76;1718018;83;21036;-60
2021/06/18 09:56:10;;;;;;;3.52;3.22;;;;;;;27.94;41.94;95926.67;1734863;83;21026;-60
2021/06/18 09:58:44;;;;;;;3.45;3.15;;;;;;;27.79;40.61;95924.69;1787681;80;21015;-60
2021/06/18 10:01:27;;;;;;;6.08;3.87;;;;;;;27.82;41.83;95922.64;1787768;80;21086;-59
2021/06/18 10:04:07;;;;;;;3.52;3.22;;;;;;;28.00;46.07;95922.97;1787915;80;20998;-60
2021/06/18 10:06:37;;;;;;;4.15;3.75;;;;;;;28.18;42.24;95919.20;1787728;80;21078;-60
2021/06/18 10:09:07;;;;;;;4.35;3.47;;;;;;;28.29;42.77;95919.66;1787640;80;20994;-60
2021/06/18 10:11:35;;;;;;;3.75;3.45;;;;;;;28.38;42.05;95921.60;1787717;80;21572;-60
2021/06/18 10:14:03;;;;;;;4.30;3.45;;;;;;;28.45;42.98;95922.84;1787672;80;21022;-60
2021/06/18 10:16:30;;;;;;;3.75;3.42;;;;;;;28.46;40.61;95915.55;1787545;80;21018;-60
2021/06/18 10:18:58;;;;;;;4.10;3.70;;;;;;;28.58;40.98;95909.59;1787579;80;21014;-60
2021/06/18 10:21:50;;;;;;;5.08;3.77;;;;;;;28.74;41.04;95914.05;1787662;80;21027;-60
2021/06/18 10:24:23;;;;;;;4.10;3.70;;;;;;;28.83;42.19;95913.77;1747555;81;21080;-60
2021/06/18 10:26:52;;;;;;;3.60;3.30;;;;;;;28.74;39.20;95911.33;1718001;83;21115;-60
2021/06/18 10:29:33;;;;;;;5.17;3.60;;;;;;;28.74;39.97;95909.98;1734821;83;21022;-60
2021/06/18 10:32:33;;;;;;;3.60;3.27;;;;;;;28.86;39.21;95904.84;1787616;80;20983;-60
2021/06/18 10:35:03;;;;;;;4.50;3.25;;;;;;;28.95;38.50;95907.24;1787455;80;21047;-60
2021/06/18 10:37:32;;;;;;;5.08;3.40;;;;;;;29.01;39.16;95909.44;1787818;80;21537;-59
2021/06/18 10:40:10;;;;;;;5.12;3.80;;;;;;;29.09;39.24;95904.22;1787531;80;20991;-60
2021/06/18 10:42:37;;;;;;;5.95;3.50;;;;;;;29.15;39.95;95900.60;1787654;80;21010;-60
2021/06/18 10:45:05;;;;;;;3.42;3.20;;;;;;;29.20;37.14;95897.83;1787664;80;21002;-60
2021/06/18 10:47:43;;;;;;;4.25;3.52;;;;;;;29.16;38.35;95904.55;1787831;80;21022;-60
2021/06/18 10:50:06;;;;;;;5.92;4.00;;;;;;;29.26;39.04;95900.53;1787053;80;21500;-60
2021/06/18 10:52:43;;;;;;;4.10;3.70;;;;;;;29.37;39.97;95905.86;1787681;80;20989;-60
2021/06/18 10:55:10;;;;;;;3.52;3.22;;;;;;;29.41;41.15;95906.43;1787735;80;21560;-60
2021/06/18 10:57:53;;;;;;;3.40;3.10;;;;;;;29.40;38.02;95902.01;1787789;80;20994;-60
2021/06/18 11:00:27;;;;;;;7.72;3.40;;;;;;;29.40;37.62;95897.93;1787383;80;21019;-60
2021/06/18 11:02:53;;;;;;;4.03;3.50;;;;;;;29.44;37.15;95896.67;1787773;80;21030;-60
2021/06/18 11:05:37;;;;;;;3.65;3.05;;;;;;;29.50;38.22;95892.88;1787705;80;21130;-59
2021/06/18 11:08:25;;;;;;;3.67;3.37;;;;;;;29.65;38.28;95896.59;1787548;80;20979;-59
2021/06/18 11:10:49;;;;;;;4.95;3.08;;;;;;;29.66;39.99;95892.42;1787643;80;21089;-60
2021/06/18 11:13:18;;;;;;;3.65;3.35;;;;;;;29.78;36.29;95885.49;1756815;80;21086;-60
2021/06/18 11:15:46;;;;;;;6.67;3.37;;;;;;;29.85;36.77;95885.30;1787595;80;20983;-60
2021/06/18 11:18:32;;;;;;;5.47;3.30;;;;;;;29.69;35.86;95884.48;1787626;80;21444;-60
2021/06/18 11:21:01;;;;;;;3.62;3.33;;;;;;;29.60;36.31;95884.77;1787661;80;21022;-60
2021/06/18 11:23:33;;;;;;;6.15;3.58;;;;;;;29.65;36.37;95885.71;1787533;80;20986;-60
2021/06/18 11:38:26;;;;;;;4.12;2.98;;;;;;;30.78;36.14;95865.70;1860301;77;22886;-60
2021/06/18 11:40:59;;;;;;;4.15;3.15;;;;;;;30.66;36.37;95866.02;1831964;78;21536;-60
2021/06/18 11:43:29;;;;;;;4.58;2.87;;;;;;;30.65;37.07;95860.23;1832460;78;21548;-60
2021/06/18 11:45:58;;;;;;;3.30;3.00;;;;;;;30.71;38.09;95852.82;1832263;78;21031;-60
2021/06/18 11:48:25;;;;;;;4.62;2.87;;;;;;;30.78;34.70;95854.81;1832128;78;21106;-60
2021/06/18 11:50:53;;;;;;;5.37;2.98;;;;;;;30.85;37.24;95853.77;1832463;78;21047;-60
2021/06/18 11:53:21;;;;;;;3.20;2.92;;;;;;;30.83;34.20;95855.27;1832228;78;20992;-61
2021/06/18 11:56:02;;;;;;;3.37;3.17;;;;;;;30.84;35.91;95849.30;1832162;78;21024;-60
2021/06/18 11:58:36;;;;;;;4.12;2.92;;;;;;;30.63;34.54;95847.59;1832291;78;21000;-60
2021/06/18 12:01:21;;;;;;;4.78;2.98;;;;;;;30.77;37.76;95847.66;1828783;78;21517;-60